Flight Number: EUR3022 Duration: 11:00
Departure: Moscow Sheremetyevo (UUEE) at 08:00 Distance: 4386 Nm
Arrival: Indianapolis Intl Airport (KIND) at 19:00 Equipment: B777

Weather Information
Moscow / Sheremet'Ye , Russia (UUEE) 55-59N 037-30E Jan 22, 2018 - 02:30 AM EST / 2018.01.22 0730 UTC
Wind: from the SW (230 degrees) at 11 MPH (10 KT):0
Visibility: 5 mile(s):0
Sky conditions: mostly cloudy Temperature: 14 F (-10 C)
Windchill: 1 F (-17 C):1 Dew Point: 12 F (-11 C) Relative Humidity: 92% Pressure (altimeter): 29.88 in. Hg (1012 hPa)
ob: UUEE 220730Z 23005MPS 9000 BKN008 M10/M11 Q1012 R24R/450345 R24L/450351 NOSIG cycle: 7
Sunrise: 05:46 Sunset: 13:37 (UTC)

INDIANAPOLIS INTERNATIONAL AIRPORT , IN, United States (KIND) 39-43N 86-17W 242M Jan 22, 2018 - 02:54 AM EST / 2018.01.22 0754 UTC
Wind: from the SE (140 degrees) at 7 MPH (6 KT):0
Visibility: 10 mile(s):0
Sky conditions: mostly cloudy Precipitation last hour: A trace Temperature: 48.0 F (8.9 C) Dew Point: 46.9 F (8.3 C) Relative Humidity: 96% Pressure (altimeter): 29.88 in. Hg (1011 hPa)
ob: KIND 220754Z 14006KT 10SM FEW046 BKN065 BKN095 09/08 A2988 RMK AO2 RAB08E21 SLP118 P0000 T00890083 cycle: 8
Sunrise: 13:03 Sunset: 22:50 (UTC)

TAF:2018/01/22 07:06 TAF AMD KIND 220703Z 2207/2312 14008KT 5SM BR BKN040 OVC100 WS020/20040KT FM221400 17012KT 4SM BR VCSH OVC050 WS020/19045KT FM221500 17013G23KT 3SM -SHRA BR OVC045 WS020/19045KT FM221700 17015G25KT 4SM -SHRA BR OVC020 FM222100 18013G24KT P6SM VCSH BKN015 FM230300 22013KT P6SM BKN060

This route has never been flown.

Route map